Time;durP1;ratioP1;P1;durP2;ratioP2;P2;SDS_P1;SDS_P2;PMS_P1;PMS_P2;Temp;Humidity;BMP_temperature;BMP_pressure;BME280_temperature;BME280_humidity;BME280_pressure;Samples;Min_cycle;Max_cycle;Signal;HPM_P1;HPM_P2
2022/01/10 00:01:53;;;;;;;6.18;4.10;;;;;;;;;;5050152;28;21823;-77
2022/01/10 00:04:21;;;;;;;4.85;3.92;;;;;;;;;;5034026;28;20453;-77
2022/01/10 00:06:48;;;;;;;5.03;4.47;;;;;;;;;;5042212;28;20442;-77
2022/01/10 00:09:15;;;;;;;5.13;4.30;;;;;;;;;;5029748;28;20436;-77
2022/01/10 00:11:42;;;;;;;5.05;4.55;;;;;;;;;;5046329;28;20416;-78
2022/01/10 00:14:09;;;;;;;5.70;4.30;;;;;;;;;;5047560;28;20397;-77
2022/01/10 00:16:36;;;;;;;5.05;4.28;;;;;;;;;;5046346;28;20685;-77
2022/01/10 00:19:04;;;;;;;5.80;4.85;;;;;;;;;;5044428;28;20683;-77
2022/01/10 00:21:31;;;;;;;5.20;4.30;;;;;;;;;;5049913;28;20450;-77
2022/01/10 00:23:58;;;;;;;4.93;4.22;;;;;;;;;;5051725;28;20405;-77
2022/01/10 00:26:25;;;;;;;4.90;4.40;;;;;;;;;;5045406;28;20410;-77
2022/01/10 00:28:52;;;;;;;5.88;4.90;;;;;;;;;;5050254;28;20413;-77
2022/01/10 00:31:20;;;;;;;5.13;4.63;;;;;;;;;;5046207;28;20493;-77
2022/01/10 00:33:47;;;;;;;5.00;4.50;;;;;;;;;;5051117;28;20504;-77
2022/01/10 00:36:14;;;;;;;5.25;3.92;;;;;;;;;;5050523;28;20413;-77
2022/01/10 00:38:41;;;;;;;5.75;4.43;;;;;;;;;;5043892;28;20482;-77
2022/01/10 00:41:10;;;;;;;4.83;4.33;;;;;;;;;;5041123;28;20396;-77
2022/01/10 00:43:44;;;;;;;5.50;4.70;;;;;;;;;;5055918;28;20922;-77
2022/01/10 00:46:12;;;;;;;5.15;4.40;;;;;;;;;;5049516;28;20487;-77
2022/01/10 00:48:39;;;;;;;4.95;4.30;;;;;;;;;;5051149;28;20508;-77
2022/01/10 00:51:06;;;;;;;4.82;4.32;;;;;;;;;;5048035;28;20454;-77
2022/01/10 00:53:33;;;;;;;5.15;4.47;;;;;;;;;;5049013;28;20409;-77
2022/01/10 00:56:01;;;;;;;5.28;4.45;;;;;;;;;;5046324;28;20451;-76
2022/01/10 00:58:28;;;;;;;5.25;4.65;;;;;;;;;;5049868;28;20403;-77
2022/01/10 01:00:55;;;;;;;5.13;4.00;;;;;;;;;;5048993;28;20539;-76
2022/01/10 01:03:22;;;;;;;4.35;3.95;;;;;;;;;;5051134;28;20420;-76
2022/01/10 01:05:49;;;;;;;5.68;4.82;;;;;;;;;;5049003;28;20443;-76
2022/01/10 01:08:16;;;;;;;5.43;4.57;;;;;;;;;;5044890;28;21004;-76
2022/01/10 01:13:26;;;;;;;4.95;4.45;;;;;;;;;;5043439;28;20459;-77
2022/01/10 01:24:05;;;;;;;5.43;4.38;;;;;;;;;;5042609;28;20459;-77
2022/01/10 01:26:34;;;;;;;5.40;4.72;;;;;;;;;;5038967;28;20469;-76
2022/01/10 01:29:02;;;;;;;5.13;4.20;;;;;;;;;;5041207;28;20944;-76
2022/01/10 01:31:29;;;;;;;6.05;4.65;;;;;;;;;;5046548;28;20415;-77
2022/01/10 01:33:56;;;;;;;5.30;4.33;;;;;;;;;;5047101;28;20395;-76
2022/01/10 01:36:25;;;;;;;4.85;3.88;;;;;;;;;;5045375;28;20438;-77
2022/01/10 01:38:53;;;;;;;5.07;4.43;;;;;;;;;;5049535;28;20465;-76
2022/01/10 01:43:54;;;;;;;5.55;4.97;;;;;;;;;;5045681;28;20477;-77
2022/01/10 01:46:22;;;;;;;4.82;4.32;;;;;;;;;;5044056;28;20412;-76
2022/01/10 01:48:50;;;;;;;4.85;4.13;;;;;;;;;;5063478;28;20401;-77
2022/01/10 01:51:17;;;;;;;5.45;4.50;;;;;;;;;;5042756;28;20411;-76
2022/01/10 01:53:45;;;;;;;4.78;4.28;;;;;;;;;;5045042;28;20476;-76
2022/01/10 01:56:12;;;;;;;5.37;4.67;;;;;;;;;;5051061;28;20405;-77
2022/01/10 01:58:40;;;;;;;4.75;3.83;;;;;;;;;;5047226;28;20412;-77
2022/01/10 02:01:08;;;;;;;5.68;5.03;;;;;;;;;;5048233;28;20421;-77
2022/01/10 02:03:38;;;;;;;4.78;4.30;;;;;;;;;;5045370;28;20400;-77
2022/01/10 02:06:06;;;;;;;5.80;4.28;;;;;;;;;;5046732;28;20444;-77
2022/01/10 02:08:36;;;;;;;4.90;4.38;;;;;;;;;;5050004;28;20477;-77
2022/01/10 02:11:05;;;;;;;5.45;4.28;;;;;;;;;;5046870;28;20407;-77
2022/01/10 02:13:32;;;;;;;4.97;4.40;;;;;;;;;;5047383;28;20668;-77
2022/01/10 02:16:02;;;;;;;5.47;4.00;;;;;;;;;;5048940;28;20404;-77
2022/01/10 02:18:29;;;;;;;6.40;4.15;;;;;;;;;;5045291;28;20500;-77
2022/01/10 02:21:00;;;;;;;4.72;4.22;;;;;;;;;;5049033;28;20416;-77
2022/01/10 02:23:27;;;;;;;5.72;4.15;;;;;;;;;;5049712;28;20492;-76
2022/01/10 02:25:55;;;;;;;5.30;3.75;;;;;;;;;;5048110;28;20403;-76
2022/01/10 02:28:23;;;;;;;5.75;4.78;;;;;;;;;;5046324;28;20408;-76
2022/01/10 02:30:59;;;;;;;5.13;4.28;;;;;;;;;;5044945;28;20403;-76
2022/01/10 02:33:28;;;;;;;5.03;4.03;;;;;;;;;;5047325;28;20529;-76
2022/01/10 02:36:11;;;;;;;5.28;4.57;;;;;;;;;;5050147;28;20683;-77
2022/01/10 02:38:45;;;;;;;4.90;4.50;;;;;;;;;;5050232;28;20446;-77
2022/01/10 02:41:19;;;;;;;5.15;4.65;;;;;;;;;;5045176;28;20480;-77
2022/01/10 02:43:46;;;;;;;4.85;4.38;;;;;;;;;;5041742;28;20428;-77
2022/01/10 02:46:13;;;;;;;6.05;4.53;;;;;;;;;;5046481;28;20408;-77
2022/01/10 02:48:40;;;;;;;4.57;4.17;;;;;;;;;;5048633;28;20409;-76
2022/01/10 02:51:07;;;;;;;4.80;4.05;;;;;;;;;;5046422;28;20791;-76
2022/01/10 02:53:35;;;;;;;4.72;4.00;;;;;;;;;;5048169;28;20428;-76
2022/01/10 02:56:02;;;;;;;4.63;4.22;;;;;;;;;;5049362;28;20390;-76
2022/01/10 02:58:29;;;;;;;6.00;4.43;;;;;;;;;;5039490;28;20415;-76
2022/01/10 03:00:56;;;;;;;5.07;4.55;;;;;;;;;;5040761;28;20450;-77
2022/01/10 03:03:26;;;;;;;4.60;4.20;;;;;;;;;;5040344;28;20583;-77
2022/01/10 03:05:54;;;;;;;4.90;4.40;;;;;;;;;;5039065;28;20462;-77
2022/01/10 03:08:21;;;;;;;5.10;4.28;;;;;;;;;;5050129;28;20442;-77
2022/01/10 03:10:48;;;;;;;6.32;5.07;;;;;;;;;;5045059;28;20472;-77
2022/01/10 03:13:16;;;;;;;4.80;4.30;;;;;;;;;;5049148;28;20467;-76
2022/01/10 03:15:43;;;;;;;5.13;4.63;;;;;;;;;;5045872;28;20448;-77
2022/01/10 03:18:10;;;;;;;5.07;4.57;;;;;;;;;;5047702;28;20441;-77
2022/01/10 03:20:37;;;;;;;5.05;4.03;;;;;;;;;;5046276;28;20861;-76
2022/01/10 03:23:05;;;;;;;4.77;3.90;;;;;;;;;;5046711;28;20431;-77
2022/01/10 03:25:32;;;;;;;4.80;4.32;;;;;;;;;;5046160;28;20413;-76
2022/01/10 03:27:59;;;;;;;4.43;3.80;;;;;;;;;;5044035;28;20455;-77
2022/01/10 03:30:28;;;;;;;4.93;4.13;;;;;;;;;;5043011;28;20642;-77
2022/01/10 03:32:58;;;;;;;4.85;4.10;;;;;;;;;;5046906;28;20450;-77
2022/01/10 03:35:25;;;;;;;5.13;4.45;;;;;;;;;;5045155;28;20456;-77
2022/01/10 03:37:52;;;;;;;6.28;4.38;;;;;;;;;;5044905;28;20486;-78
2022/01/10 03:40:19;;;;;;;5.22;4.28;;;;;;;;;;5044975;28;20415;-78
2022/01/10 03:42:46;;;;;;;4.15;3.67;;;;;;;;;;5046262;28;20416;-78
2022/01/10 03:45:13;;;;;;;5.07;4.22;;;;;;;;;;5040833;28;21384;-78
2022/01/10 03:47:41;;;;;;;6.15;4.03;;;;;;;;;;5059175;28;20449;-78
2022/01/10 03:50:08;;;;;;;5.30;4.07;;;;;;;;;;5047753;28;20756;-78
2022/01/10 03:52:35;;;;;;;5.80;4.40;;;;;;;;;;5035710;28;20820;-77
2022/01/10 03:55:03;;;;;;;4.78;4.00;;;;;;;;;;5042945;28;20528;-76
2022/01/10 03:57:30;;;;;;;5.40;4.28;;;;;;;;;;5046919;28;20449;-77
2022/01/10 03:59:58;;;;;;;4.88;3.85;;;;;;;;;;5044503;28;20409;-76
2022/01/10 04:02:26;;;;;;;5.45;4.32;;;;;;;;;;5037358;28;20416;-77
2022/01/10 04:04:54;;;;;;;4.95;4.47;;;;;;;;;;5038606;28;20454;-77
2022/01/10 04:07:21;;;;;;;5.30;3.88;;;;;;;;;;5040209;28;20417;-77
2022/01/10 04:09:48;;;;;;;4.53;4.13;;;;;;;;;;5044186;28;20611;-77
2022/01/10 04:12:15;;;;;;;5.38;4.63;;;;;;;;;;5038211;28;20414;-77
2022/01/10 04:14:42;;;;;;;5.40;4.20;;;;;;;;;;5047785;28;20517;-77
2022/01/10 04:17:11;;;;;;;5.57;4.18;;;;;;;;;;5049174;28;20970;-77
2022/01/10 04:19:38;;;;;;;4.72;4.07;;;;;;;;;;5049439;28;20439;-77
2022/01/10 04:22:05;;;;;;;4.43;3.72;;;;;;;;;;5042690;28;20479;-77
2022/01/10 04:24:32;;;;;;;4.70;4.22;;;;;;;;;;5049426;28;20424;-77
2022/01/10 04:26:59;;;;;;;5.03;4.05;;;;;;;;;;5044812;28;20396;-78
2022/01/10 04:29:27;;;;;;;5.10;4.60;;;;;;;;;;5050534;28;20486;-77
2022/01/10 04:31:54;;;;;;;5.38;4.15;;;;;;;;;;5046081;28;20464;-77
2022/01/10 04:34:21;;;;;;;5.30;4.53;;;;;;;;;;5049725;28;20438;-77
2022/01/10 04:36:48;;;;;;;5.00;4.25;;;;;;;;;;5046850;28;20414;-76
2022/01/10 04:39:15;;;;;;;5.20;4.32;;;;;;;;;;5043911;28;20408;-76
2022/01/10 04:41:42;;;;;;;4.97;4.47;;;;;;;;;;5043365;28;20432;-77
2022/01/10 04:44:09;;;;;;;4.50;3.47;;;;;;;;;;5046281;28;20396;-76
2022/01/10 04:46:37;;;;;;;4.10;3.65;;;;;;;;;;5044834;28;20411;-77
2022/01/10 04:49:06;;;;;;;4.60;4.20;;;;;;;;;;5042703;28;20405;-76
2022/01/10 04:51:33;;;;;;;4.78;4.13;;;;;;;;;;5047580;28;20572;-77
2022/01/10 04:54:00;;;;;;;4.65;4.15;;;;;;;;;;5055374;28;20683;-77
2022/01/10 04:56:27;;;;;;;4.80;4.03;;;;;;;;;;5045138;28;20522;-77
2022/01/10 04:58:54;;;;;;;4.63;4.22;;;;;;;;;;5043325;28;20449;-77
2022/01/10 05:01:22;;;;;;;4.95;4.45;;;;;;;;;;5050298;28;20430;-77
2022/01/10 05:03:49;;;;;;;5.50;4.85;;;;;;;;;;5041581;28;20405;-77
2022/01/10 05:06:16;;;;;;;5.60;4.22;;;;;;;;;;5047800;28;20497;-77
2022/01/10 05:08:43;;;;;;;5.40;4.40;;;;;;;;;;5050532;28;20811;-77
2022/01/10 05:11:10;;;;;;;5.55;4.63;;;;;;;;;;5046595;28;20404;-76
2022/01/10 05:13:37;;;;;;;4.63;4.22;;;;;;;;;;5051460;28;20466;-76
2022/01/10 05:16:05;;;;;;;4.83;4.27;;;;;;;;;;5065772;28;20414;-76
2022/01/10 05:18:32;;;;;;;5.82;4.35;;;;;;;;;;5048122;28;20500;-76
2022/01/10 05:20:59;;;;;;;5.00;4.40;;;;;;;;;;5060802;28;20428;-76
2022/01/10 05:23:26;;;;;;;4.93;4.43;;;;;;;;;;5047562;28;20405;-76
2022/01/10 05:25:53;;;;;;;5.25;4.55;;;;;;;;;;5037760;28;20511;-76
2022/01/10 05:28:21;;;;;;;5.38;4.30;;;;;;;;;;5049245;28;20413;-76
2022/01/10 05:30:51;;;;;;;4.60;3.83;;;;;;;;;;5033109;28;20520;-77
2022/01/10 05:33:18;;;;;;;4.88;4.10;;;;;;;;;;5044605;28;20877;-77
2022/01/10 05:35:46;;;;;;;5.93;4.53;;;;;;;;;;5050588;28;20428;-77
2022/01/10 05:38:13;;;;;;;5.55;4.82;;;;;;;;;;5048258;28;20407;-76
2022/01/10 05:40:40;;;;;;;5.40;4.30;;;;;;;;;;5032353;28;20413;-76
2022/01/10 05:43:08;;;;;;;5.25;4.57;;;;;;;;;;5046792;28;20405;-76
2022/01/10 05:45:43;;;;;;;5.68;4.90;;;;;;;;;;5037542;28;20407;-76
2022/01/10 05:48:13;;;;;;;5.88;4.68;;;;;;;;;;5046629;28;20579;-76
2022/01/10 05:50:43;;;;;;;5.93;4.93;;;;;;;;;;5048939;28;20838;-77
2022/01/10 05:53:11;;;;;;;5.63;4.57;;;;;;;;;;5043808;28;20772;-77
2022/01/10 05:55:38;;;;;;;4.45;4.05;;;;;;;;;;5061452;28;20396;-77
2022/01/10 05:58:05;;;;;;;6.00;3.92;;;;;;;;;;5050886;28;20446;-77
2022/01/10 06:00:34;;;;;;;5.97;4.10;;;;;;;;;;5051703;28;20680;-77
2022/01/10 06:03:02;;;;;;;5.15;4.60;;;;;;;;;;5042092;28;20464;-79
2022/01/10 06:05:31;;;;;;;5.30;3.97;;;;;;;;;;5046450;28;20446;-80
2022/01/10 06:07:59;;;;;;;5.72;4.28;;;;;;;;;;5043905;28;20451;-75
2022/01/10 06:10:26;;;;;;;5.77;4.63;;;;;;;;;;5046606;28;20442;-75
2022/01/10 06:12:54;;;;;;;5.78;4.28;;;;;;;;;;5043166;28;20419;-76
2022/01/10 06:15:22;;;;;;;7.53;4.80;;;;;;;;;;5044767;28;20411;-76
2022/01/10 06:17:50;;;;;;;5.47;4.45;;;;;;;;;;5039242;28;20416;-76
2022/01/10 06:20:17;;;;;;;5.32;4.72;;;;;;;;;;5039186;28;20626;-77
2022/01/10 06:22:44;;;;;;;6.95;4.47;;;;;;;;;;5041885;28;20406;-77
2022/01/10 06:25:14;;;;;;;5.55;4.38;;;;;;;;;;5042184;28;20409;-78
2022/01/10 06:27:41;;;;;;;7.03;5.50;;;;;;;;;;5049972;28;20517;-77
2022/01/10 06:30:08;;;;;;;9.68;4.97;;;;;;;;;;5048409;28;20428;-79
2022/01/10 06:32:35;;;;;;;14.10;6.43;;;;;;;;;;5046178;28;20404;-78
2022/01/10 06:35:03;;;;;;;12.50;6.60;;;;;;;;;;5043460;28;20942;-77
2022/01/10 06:37:30;;;;;;;14.20;6.13;;;;;;;;;;5050690;28;20431;-78
2022/01/10 06:39:57;;;;;;;16.60;6.45;;;;;;;;;;5047391;28;20858;-78
2022/01/10 06:42:24;;;;;;;13.82;5.53;;;;;;;;;;5040814;28;20402;-79
2022/01/10 06:44:51;;;;;;;11.15;5.30;;;;;;;;;;5036032;28;20454;-78
2022/01/10 06:47:18;;;;;;;12.80;5.65;;;;;;;;;;5042643;28;20603;-78
2022/01/10 06:49:45;;;;;;;11.15;5.78;;;;;;;;;;5041503;28;20409;-78
2022/01/10 06:52:13;;;;;;;8.63;5.43;;;;;;;;;;5046780;28;20523;-77
2022/01/10 06:54:41;;;;;;;11.48;6.20;;;;;;;;;;5046569;28;20446;-78
2022/01/10 06:57:08;;;;;;;11.07;5.83;;;;;;;;;;5032201;28;20813;-76
2022/01/10 06:59:35;;;;;;;11.60;5.30;;;;;;;;;;5047823;28;20405;-78
2022/01/10 07:02:03;;;;;;;8.35;5.68;;;;;;;;;;5047728;28;20425;-76
2022/01/10 07:04:40;;;;;;;11.10;5.68;;;;;;;;;;5044427;28;20407;-77
2022/01/10 07:07:07;;;;;;;9.05;4.88;;;;;;;;;;5038437;28;20476;-78
2022/01/10 07:09:35;;;;;;;7.82;5.30;;;;;;;;;;5042714;28;20704;-78
2022/01/10 07:12:03;;;;;;;5.82;4.28;;;;;;;;;;5047914;28;20790;-78
2022/01/10 07:14:33;;;;;;;9.10;4.53;;;;;;;;;;5038336;28;20450;-78
2022/01/10 07:17:03;;;;;;;62.33;12.48;;;;;;;;;;5045327;28;20894;-76
2022/01/10 07:19:31;;;;;;;46.65;12.38;;;;;;;;;;5043682;28;21127;-78
2022/01/10 07:21:58;;;;;;;44.08;11.25;;;;;;;;;;5047073;28;20959;-78
2022/01/10 07:24:25;;;;;;;36.92;12.18;;;;;;;;;;5046618;28;20395;-79
2022/01/10 07:26:52;;;;;;;38.90;10.30;;;;;;;;;;5044355;28;20412;-77
2022/01/10 07:29:19;;;;;;;33.70;9.77;;;;;;;;;;5046394;28;20401;-81
2022/01/10 07:31:47;;;;;;;26.80;8.53;;;;;;;;;;5039558;28;20308;-83
2022/01/10 07:34:15;;;;;;;30.90;6.90;;;;;;;;;;5027026;28;20213;-81
2022/01/10 07:36:43;;;;;;;19.50;6.70;;;;;;;;;;5048906;28;20264;-81
2022/01/10 07:39:11;;;;;;;22.07;6.70;;;;;;;;;;5037468;28;20664;-79
2022/01/10 07:41:42;;;;;;;15.37;6.73;;;;;;;;;;5030332;28;20345;-80
2022/01/10 07:44:10;;;;;;;18.83;6.20;;;;;;;;;;5035226;28;20214;-80
2022/01/10 07:46:40;;;;;;;13.23;5.77;;;;;;;;;;5040405;28;20701;-80
2022/01/10 07:49:07;;;;;;;16.30;5.40;;;;;;;;;;5040005;28;20202;-81
2022/01/10 07:51:37;;;;;;;12.77;5.33;;;;;;;;;;5040499;28;20678;-83
2022/01/10 07:54:04;;;;;;;15.13;5.30;;;;;;;;;;5060520;28;20222;-80
2022/01/10 07:56:31;;;;;;;10.07;4.87;;;;;;;;;;5037292;28;20222;-79
2022/01/10 07:58:59;;;;;;;13.10;5.53;;;;;;;;;;5043289;28;20237;-80
2022/01/10 08:01:26;;;;;;;10.30;4.33;;;;;;;;;;5044362;22;20266;-84
2022/01/10 08:04:04;;;;;;;9.63;4.90;;;;;;;;;;5021192;28;20210;-83
2022/01/10 08:06:31;;;;;;;10.17;4.80;;;;;;;;;;5028479;28;20252;-83
2022/01/10 08:09:01;;;;;;;7.63;4.30;;;;;;;;;;5022711;28;20219;-80
2022/01/10 08:11:29;;;;;;;6.80;4.40;;;;;;;;;;5025560;28;20199;-78
2022/01/10 08:14:02;;;;;;;9.87;4.33;;;;;;;;;;5032039;28;20205;-83
2022/01/10 08:16:29;;;;;;;6.70;4.20;;;;;;;;;;5021327;28;20261;-76
2022/01/10 08:18:57;;;;;;;7.20;3.77;;;;;;;;;;5016069;28;20199;-76
2022/01/10 08:21:24;;;;;;;6.40;3.60;;;;;;;;;;5019029;28;20480;-77
2022/01/10 08:23:51;;;;;;;7.23;4.03;;;;;;;;;;5020206;28;20198;-79
2022/01/10 08:26:19;;;;;;;8.43;3.63;;;;;;;;;;5025183;28;20698;-79
2022/01/10 08:28:52;;;;;;;7.37;3.40;;;;;;;;;;5023582;28;20198;-79
2022/01/10 08:31:20;;;;;;;11.63;3.53;;;;;;;;;;5020210;28;20199;-79
2022/01/10 08:33:52;;;;;;;7.47;3.27;;;;;;;;;;5024226;28;20667;-78
2022/01/10 08:36:19;;;;;;;6.23;2.70;;;;;;;;;;5025507;28;20203;-84
2022/01/10 08:38:50;;;;;;;5.60;2.90;;;;;;;;;;5024284;28;20192;-83
2022/01/10 08:41:17;;;;;;;6.50;3.03;;;;;;;;;;5026594;28;20578;-81
2022/01/10 08:43:47;;;;;;;7.13;2.87;;;;;;;;;;5029999;28;20221;-86
2022/01/10 08:46:15;;;;;;;4.00;2.57;;;;;;;;;;5031933;28;20226;-85
2022/01/10 08:48:49;;;;;;;7.13;2.83;;;;;;;;;;5023158;28;20226;-83
2022/01/10 08:51:16;;;;;;;5.23;2.60;;;;;;;;;;5032356;28;20219;-83
2022/01/10 08:53:43;;;;;;;4.10;2.60;;;;;;;;;;5032725;28;20219;-83
2022/01/10 08:56:11;;;;;;;3.30;2.80;;;;;;;;;;5031249;28;20194;-81
2022/01/10 08:58:38;;;;;;;4.73;2.70;;;;;;;;;;5034503;28;20203;-90
2022/01/10 09:01:06;;;;;;;3.70;2.47;;;;;;;;;;5017535;28;20788;-89
2022/01/10 09:03:34;;;;;;;9.07;2.60;;;;;;;;;;5032258;28;20321;-85
2022/01/10 09:06:04;;;;;;;7.93;2.40;;;;;;;;;;5043761;28;20206;-93
2022/01/10 09:08:33;;;;;;;3.70;2.20;;;;;;;;;;5030362;28;20195;-79
2022/01/10 09:11:01;;;;;;;8.37;2.97;;;;;;;;;;5018505;28;20257;-83
2022/01/10 09:13:29;;;;;;;4.07;2.50;;;;;;;;;;5029845;28;20214;-86
2022/01/10 09:15:56;;;;;;;7.17;2.77;;;;;;;;;;5032442;28;20207;-85
2022/01/10 09:18:24;;;;;;;5.07;2.50;;;;;;;;;;5042319;28;20207;-88
2022/01/10 09:20:52;;;;;;;2.97;2.10;;;;;;;;;;5053201;28;20203;-83
2022/01/10 09:23:19;;;;;;;2.83;2.23;;;;;;;;;;5044163;28;20214;-79
2022/01/10 09:25:51;;;;;;;4.30;2.60;;;;;;;;;;5040631;28;20828;-83
2022/01/10 09:28:19;;;;;;;4.17;2.20;;;;;;;;;;5040579;28;20191;-81
2022/01/10 09:30:47;;;;;;;6.53;2.47;;;;;;;;;;5039654;28;20210;-81
2022/01/10 09:33:14;;;;;;;7.03;2.50;;;;;;;;;;5030982;28;20290;-79
2022/01/10 09:35:43;;;;;;;4.47;2.23;;;;;;;;;;5034401;28;20226;-80
2022/01/10 09:38:10;;;;;;;8.87;2.80;;;;;;;;;;5037913;28;20191;-82
2022/01/10 09:40:38;;;;;;;4.93;2.40;;;;;;;;;;5042767;28;20195;-82
2022/01/10 09:43:18;;;;;;;3.13;2.53;;;;;;;;;;5038407;28;20191;-77
2022/01/10 09:45:45;;;;;;;4.03;2.30;;;;;;;;;;5029509;28;20207;-82
2022/01/10 09:48:13;;;;;;;4.10;2.50;;;;;;;;;;5032396;28;20275;-79
2022/01/10 09:50:40;;;;;;;7.43;2.33;;;;;;;;;;5037736;28;20214;-81
2022/01/10 09:53:08;;;;;;;5.60;2.50;;;;;;;;;;5041915;28;20237;-80
2022/01/10 09:55:36;;;;;;;4.97;2.27;;;;;;;;;;5027566;28;20222;-80
2022/01/10 09:58:03;;;;;;;4.17;2.40;;;;;;;;;;5024690;28;20296;-81
2022/01/10 10:00:31;;;;;;;3.13;2.20;;;;;;;;;;5026450;28;20222;-86
2022/01/10 10:03:08;;;;;;;4.03;2.27;;;;;;;;;;5028518;28;20768;-88
2022/01/10 10:05:56;;;;;;;5.67;2.27;;;;;;;;;;5031425;28;20199;-94
2022/01/10 10:08:27;;;;;;;3.40;2.03;;;;;;;;;;5043017;28;20213;-92
2022/01/10 10:10:55;;;;;;;3.93;2.50;;;;;;;;;;5021854;28;20211;-84
2022/01/10 10:13:24;;;;;;;6.20;2.30;;;;;;;;;;5039198;28;20285;-86
2022/01/10 10:15:51;;;;;;;5.63;2.07;;;;;;;;;;5031959;28;20213;-86
2022/01/10 10:18:20;;;;;;;4.93;2.40;;;;;;;;;;5046498;28;20215;-90
2022/01/10 10:20:47;;;;;;;4.80;2.30;;;;;;;;;;5024067;28;20230;-85
2022/01/10 10:23:21;;;;;;;6.47;2.43;;;;;;;;;;5016046;28;20241;-86
2022/01/10 10:25:50;;;;;;;3.47;2.10;;;;;;;;;;5021482;28;20257;-83
2022/01/10 10:28:17;;;;;;;3.93;2.20;;;;;;;;;;5025166;28;20257;-81
2022/01/10 10:30:44;;;;;;;2.90;2.37;;;;;;;;;;5022748;28;20189;-80
2022/01/10 10:33:19;;;;;;;3.20;2.10;;;;;;;;;;5037323;28;20636;-79
2022/01/10 10:35:54;;;;;;;5.80;2.63;;;;;;;;;;5021123;28;20675;-82
2022/01/10 10:38:22;;;;;;;5.33;2.30;;;;;;;;;;5019447;28;20207;-80
2022/01/10 10:40:49;;;;;;;4.33;2.13;;;;;;;;;;5026260;28;20229;-86
2022/01/10 10:43:16;;;;;;;3.33;2.30;;;;;;;;;;5021605;28;20626;-79
2022/01/10 10:45:47;;;;;;;3.00;2.37;;;;;;;;;;5026041;28;20542;-81
2022/01/10 10:48:15;;;;;;;3.83;2.43;;;;;;;;;;5008680;28;20355;-78
2022/01/10 10:50:45;;;;;;;4.10;2.23;;;;;;;;;;5022762;28;20204;-78
2022/01/10 10:53:14;;;;;;;2.50;2.30;;;;;;;;;;5021154;28;20236;-80
2022/01/10 10:55:42;;;;;;;2.53;2.20;;;;;;;;;;5020141;28;20356;-80
2022/01/10 10:58:10;;;;;;;2.63;1.83;;;;;;;;;;5023624;28;20201;-81
2022/01/10 11:00:38;;;;;;;3.93;2.37;;;;;;;;;;5030857;28;20215;-77
2022/01/10 11:03:09;;;;;;;2.80;1.87;;;;;;;;;;5020235;28;20211;-79
2022/01/10 11:05:36;;;;;;;3.23;2.27;;;;;;;;;;5027712;28;20229;-79
2022/01/10 11:08:04;;;;;;;4.47;2.57;;;;;;;;;;5028290;28;20668;-80
2022/01/10 11:10:31;;;;;;;6.77;2.27;;;;;;;;;;5031485;28;20203;-80
2022/01/10 11:13:00;;;;;;;7.43;2.80;;;;;;;;;;5019692;28;20891;-78
2022/01/10 11:15:28;;;;;;;5.13;3.30;;;;;;;;;;5027327;28;20568;-78
2022/01/10 11:18:00;;;;;;;6.70;2.83;;;;;;;;;;5025400;28;20207;-77
2022/01/10 11:20:30;;;;;;;5.67;2.63;;;;;;;;;;5029066;28;20837;-79
2022/01/10 11:23:01;;;;;;;6.37;2.70;;;;;;;;;;5025317;28;20253;-80
2022/01/10 11:25:29;;;;;;;7.27;2.63;;;;;;;;;;5035620;28;20238;-80
2022/01/10 11:28:08;;;;;;;6.63;2.90;;;;;;;;;;5025053;28;20203;-82
2022/01/10 11:30:40;;;;;;;5.30;3.10;;;;;;;;;;5025036;28;20764;-80
2022/01/10 11:33:08;;;;;;;6.10;3.20;;;;;;;;;;5021523;28;20202;-80
2022/01/10 11:35:49;;;;;;;11.67;4.07;;;;;;;;;;5019101;28;20219;-81
2022/01/10 11:38:36;;;;;;;4.80;2.60;;;;;;;;;;5023622;28;20209;-80
2022/01/10 11:41:04;;;;;;;4.50;2.37;;;;;;;;;;5020884;28;20277;-80
2022/01/10 11:43:35;;;;;;;6.93;2.43;;;;;;;;;;5024274;28;20277;-79
2022/01/10 11:46:23;;;;;;;7.47;3.20;;;;;;;;;;5026605;28;20290;-80
2022/01/10 11:48:55;;;;;;;10.13;3.57;;;;;;;;;;5015900;28;20223;-84
2022/01/10 11:51:39;;;;;;;5.57;3.20;;;;;;;;;;5028856;28;20386;-82
2022/01/10 11:54:36;;;;;;;4.50;3.00;;;;;;;;;;5021108;28;20226;-85
2022/01/10 11:57:06;;;;;;;3.90;3.20;;;;;;;;;;5027382;28;20202;-83
2022/01/10 11:59:45;;;;;;;12.23;3.93;;;;;;;;;;5015678;28;20221;-94
2022/01/10 12:02:12;;;;;;;8.07;3.20;;;;;;;;;;5040586;28;20283;-88
2022/01/10 12:04:42;;;;;;;5.97;3.07;;;;;;;;;;5026520;28;20203;-83
2022/01/10 12:11:03;;;;;;;4.87;2.93;;;;;;;;;;5322802;22;20225;-67
2022/01/10 12:13:36;;;;;;;5.93;2.90;;;;;;;;;;5045529;28;20238;-67
2022/01/10 12:16:06;;;;;;;3.47;2.33;;;;;;;;;;5045038;28;20216;-69
2022/01/10 12:18:35;;;;;;;4.87;2.90;;;;;;;;;;5027944;28;20652;-69
2022/01/10 12:21:13;;;;;;;3.53;2.90;;;;;;;;;;5041846;28;20206;-67
2022/01/10 12:23:48;;;;;;;3.10;2.30;;;;;;;;;;5047059;28;20233;-67
2022/01/10 12:26:18;;;;;;;7.10;2.70;;;;;;;;;;5048228;28;20283;-68
2022/01/10 12:28:52;;;;;;;4.57;2.57;;;;;;;;;;5037171;28;20431;-70
2022/01/10 12:31:26;;;;;;;3.57;2.57;;;;;;;;;;5028015;28;20770;-69
2022/01/10 12:34:10;;;;;;;3.93;2.80;;;;;;;;;;5031846;28;20485;-67
2022/01/10 12:36:41;;;;;;;4.73;3.20;;;;;;;;;;5044606;28;20604;-68
2022/01/10 12:39:26;;;;;;;5.33;3.17;;;;;;;;;;5040671;28;20626;-65
2022/01/10 12:41:59;;;;;;;5.20;3.33;;;;;;;;;;5034421;28;20248;-66
2022/01/10 12:44:28;;;;;;;4.73;3.53;;;;;;;;;;5046920;28;20274;-67
2022/01/10 12:46:57;;;;;;;4.27;3.87;;;;;;;;;;5029215;28;20213;-66
2022/01/10 12:49:25;;;;;;;5.47;3.63;;;;;;;;;;5046056;28;20204;-67
2022/01/10 12:51:55;;;;;;;4.27;3.30;;;;;;;;;;5045608;28;20206;-68
2022/01/10 12:54:31;;;;;;;4.30;2.90;;;;;;;;;;5024762;28;20256;-68
2022/01/10 12:57:01;;;;;;;2.90;2.57;;;;;;;;;;5048110;28;20206;-68
2022/01/10 12:59:32;;;;;;;4.07;2.70;;;;;;;;;;5045402;28;20214;-68
2022/01/10 13:02:02;;;;;;;3.80;2.67;;;;;;;;;;5048102;28;20230;-71
2022/01/10 13:04:34;;;;;;;3.43;2.60;;;;;;;;;;5046190;28;20219;-71
2022/01/10 13:07:17;;;;;;;3.73;2.47;;;;;;;;;;5046185;28;20214;-69
2022/01/10 13:09:58;;;;;;;3.73;2.20;;;;;;;;;;5047048;28;20287;-69
2022/01/10 13:12:29;;;;;;;4.27;2.67;;;;;;;;;;5047877;28;20225;-67
2022/01/10 13:15:09;;;;;;;3.23;2.77;;;;;;;;;;5044801;28;20214;-68
2022/01/10 13:17:45;;;;;;;3.53;2.30;;;;;;;;;;5049687;28;20675;-66
2022/01/10 13:20:17;;;;;;;3.63;2.40;;;;;;;;;;5046474;28;20217;-67
2022/01/10 13:22:48;;;;;;;2.60;2.37;;;;;;;;;;5036280;28;20292;-67
2022/01/10 13:25:19;;;;;;;2.50;2.20;;;;;;;;;;5044713;28;20210;-68
2022/01/10 13:27:53;;;;;;;3.30;2.60;;;;;;;;;;5029173;28;20258;-69
2022/01/10 13:30:33;;;;;;;3.70;2.40;;;;;;;;;;5045442;28;20237;-70
2022/01/10 13:33:07;;;;;;;4.27;2.50;;;;;;;;;;5045667;28;20217;-70
2022/01/10 13:35:38;;;;;;;2.67;2.47;;;;;;;;;;5029482;28;21296;-70
2022/01/10 13:38:14;;;;;;;3.50;2.03;;;;;;;;;;5041548;28;20194;-71
2022/01/10 13:40:47;;;;;;;2.40;2.00;;;;;;;;;;5046633;28;20243;-70
2022/01/10 13:43:31;;;;;;;2.93;2.43;;;;;;;;;;5045893;28;20220;-68
2022/01/10 13:46:21;;;;;;;3.03;2.50;;;;;;;;;;5031200;28;20218;-70
2022/01/10 13:49:11;;;;;;;3.13;2.63;;;;;;;;;;5025880;28;20216;-70
2022/01/10 13:51:43;;;;;;;3.23;2.37;;;;;;;;;;5048627;28;20226;-70
2022/01/10 13:54:12;;;;;;;2.53;2.33;;;;;;;;;;5049663;28;20206;-70
2022/01/10 13:56:51;;;;;;;3.70;2.13;;;;;;;;;;5045208;28;20229;-67
2022/01/10 13:59:22;;;;;;;2.47;2.27;;;;;;;;;;5052037;28;20217;-66
2022/01/10 14:01:56;;;;;;;2.17;1.90;;;;;;;;;;5049868;28;20302;-68
2022/01/10 14:04:44;;;;;;;2.07;1.83;;;;;;;;;;5048051;28;20232;-69
2022/01/10 14:07:18;;;;;;;3.53;2.53;;;;;;;;;;5045062;28;20263;-70
2022/01/10 14:09:54;;;;;;;2.80;2.10;;;;;;;;;;5047023;28;20209;-69
2022/01/10 14:12:23;;;;;;;2.40;2.20;;;;;;;;;;5044751;28;20248;-69
2022/01/10 14:14:54;;;;;;;2.77;2.27;;;;;;;;;;5065400;28;20193;-69
2022/01/10 14:17:24;;;;;;;3.23;2.43;;;;;;;;;;5051159;28;20193;-71
2022/01/10 14:19:53;;;;;;;5.17;2.10;;;;;;;;;;5067684;28;20205;-71
2022/01/10 14:22:37;;;;;;;3.47;2.53;;;;;;;;;;5073655;28;20206;-68
2022/01/10 14:25:12;;;;;;;3.87;2.70;;;;;;;;;;5062976;28;20658;-68
2022/01/10 14:27:45;;;;;;;4.03;2.83;;;;;;;;;;5066960;28;20198;-67
2022/01/10 14:30:19;;;;;;;3.27;2.90;;;;;;;;;;5068195;28;20208;-68
2022/01/10 14:32:53;;;;;;;4.50;3.13;;;;;;;;;;5050197;28;20201;-66
2022/01/10 14:35:22;;;;;;;2.90;2.63;;;;;;;;;;5067990;28;20229;-67
2022/01/10 14:37:52;;;;;;;6.60;3.10;;;;;;;;;;5050922;28;20205;-67
2022/01/10 14:40:22;;;;;;;3.80;3.33;;;;;;;;;;5067694;28;20217;-67
2022/01/10 14:42:54;;;;;;;3.93;2.87;;;;;;;;;;5065219;28;20219;-68
2022/01/10 14:45:24;;;;;;;5.03;3.13;;;;;;;;;;5066453;28;20840;-70
2022/01/10 14:48:01;;;;;;;3.83;2.87;;;;;;;;;;5063510;28;20297;-70
2022/01/10 14:50:29;;;;;;;3.07;2.70;;;;;;;;;;5064783;28;20186;-71
2022/01/10 14:53:00;;;;;;;5.03;3.13;;;;;;;;;;5065391;28;20197;-71
2022/01/10 14:55:30;;;;;;;3.50;3.00;;;;;;;;;;5064216;28;20205;-70
2022/01/10 14:58:02;;;;;;;4.23;2.90;;;;;;;;;;5066884;28;20218;-70
2022/01/10 15:00:35;;;;;;;3.17;2.80;;;;;;;;;;5067837;28;20228;-67
2022/01/10 15:03:07;;;;;;;5.10;3.50;;;;;;;;;;5066277;28;20227;-67
2022/01/10 15:05:37;;;;;;;5.80;3.40;;;;;;;;;;5061664;28;20186;-68
2022/01/10 15:08:10;;;;;;;6.33;4.40;;;;;;;;;;5051531;28;20198;-67
2022/01/10 15:10:39;;;;;;;4.97;4.10;;;;;;;;;;5069102;28;20205;-68
2022/01/10 15:13:15;;;;;;;5.03;3.50;;;;;;;;;;5038774;28;20238;-69